sensor_id;sensor_type;location;lat;lon;timestamp;P1;durP1;ratioP1;P2;durP2;ratioP2
76939;SDS011;65885;55.848;35.916;2023-04-25T00:02:09;3.30;;;2.63;;
76939;SDS011;65885;55.848;35.916;2023-04-25T00:04:36;3.90;;;2.53;;
76939;SDS011;65885;55.848;35.916;2023-04-25T00:07:04;2.67;;;2.40;;
76939;SDS011;65885;55.848;35.916;2023-04-25T00:09:31;4.60;;;2.83;;
76939;SDS011;65885;55.848;35.916;2023-04-25T00:12:00;3.40;;;2.72;;
76939;SDS011;65885;55.848;35.916;2023-04-25T00:14:28;4.32;;;2.92;;
76939;SDS011;65885;55.848;35.916;2023-04-25T00:16:58;4.63;;;3.00;;
76939;SDS011;65885;55.848;35.916;2023-04-25T00:19:26;3.55;;;2.65;;
76939;SDS011;65885;55.848;35.916;2023-04-25T00:21:53;5.25;;;3.20;;
76939;SDS011;65885;55.848;35.916;2023-04-25T00:24:21;4.45;;;3.10;;
76939;SDS011;65885;55.848;35.916;2023-04-25T00:26:49;4.10;;;2.45;;
76939;SDS011;65885;55.848;35.916;2023-04-25T00:29:17;4.90;;;2.83;;
76939;SDS011;65885;55.848;35.916;2023-04-25T00:31:45;5.05;;;2.88;;
76939;SDS011;65885;55.848;35.916;2023-04-25T00:34:13;4.53;;;3.00;;
76939;SDS011;65885;55.848;35.916;2023-04-25T00:36:40;3.85;;;2.75;;
76939;SDS011;65885;55.848;35.916;2023-04-25T00:39:08;5.47;;;2.80;;
76939;SDS011;65885;55.848;35.916;2023-04-25T00:41:35;4.28;;;2.78;;
76939;SDS011;65885;55.848;35.916;2023-04-25T00:44:03;5.82;;;3.08;;
76939;SDS011;65885;55.848;35.916;2023-04-25T00:46:33;4.43;;;2.90;;
76939;SDS011;65885;55.848;35.916;2023-04-25T00:49:02;5.05;;;3.08;;
76939;SDS011;65885;55.848;35.916;2023-04-25T00:51:29;5.32;;;3.00;;
76939;SDS011;65885;55.848;35.916;2023-04-25T00:53:59;3.70;;;2.85;;
76939;SDS011;65885;55.848;35.916;2023-04-25T00:56:28;6.95;;;2.95;;
76939;SDS011;65885;55.848;35.916;2023-04-25T00:58:55;4.47;;;3.22;;
76939;SDS011;65885;55.848;35.916;2023-04-25T01:01:23;4.60;;;3.20;;
76939;SDS011;65885;55.848;35.916;2023-04-25T01:03:52;5.00;;;3.42;;
76939;SDS011;65885;55.848;35.916;2023-04-25T01:06:20;5.57;;;2.92;;
76939;SDS011;65885;55.848;35.916;2023-04-25T01:08:48;4.82;;;3.50;;
76939;SDS011;65885;55.848;35.916;2023-04-25T01:11:16;7.10;;;3.83;;
76939;SDS011;65885;55.848;35.916;2023-04-25T01:13:44;6.03;;;3.30;;
76939;SDS011;65885;55.848;35.916;2023-04-25T01:16:11;5.63;;;3.10;;
76939;SDS011;65885;55.848;35.916;2023-04-25T01:18:39;6.40;;;3.30;;
76939;SDS011;65885;55.848;35.916;2023-04-25T01:21:10;6.68;;;3.78;;
76939;SDS011;65885;55.848;35.916;2023-04-25T01:23:39;5.97;;;3.97;;
76939;SDS011;65885;55.848;35.916;2023-04-25T01:26:08;5.57;;;3.10;;
76939;SDS011;65885;55.848;35.916;2023-04-25T01:28:38;5.07;;;3.47;;
76939;SDS011;65885;55.848;35.916;2023-04-25T01:31:06;5.15;;;3.53;;
76939;SDS011;65885;55.848;35.916;2023-04-25T01:33:34;5.20;;;3.20;;
76939;SDS011;65885;55.848;35.916;2023-04-25T01:36:02;5.07;;;3.72;;
76939;SDS011;65885;55.848;35.916;2023-04-25T01:38:32;4.85;;;3.42;;
76939;SDS011;65885;55.848;35.916;2023-04-25T01:41:00;5.10;;;3.35;;
76939;SDS011;65885;55.848;35.916;2023-04-25T01:43:28;4.63;;;3.20;;
76939;SDS011;65885;55.848;35.916;2023-04-25T01:45:55;3.58;;;3.03;;
76939;SDS011;65885;55.848;35.916;2023-04-25T01:48:23;5.30;;;3.35;;
76939;SDS011;65885;55.848;35.916;2023-04-25T01:50:51;6.78;;;3.38;;
76939;SDS011;65885;55.848;35.916;2023-04-25T01:53:18;4.13;;;3.30;;
76939;SDS011;65885;55.848;35.916;2023-04-25T01:55:49;5.38;;;3.25;;
76939;SDS011;65885;55.848;35.916;2023-04-25T01:58:17;5.65;;;3.75;;
76939;SDS011;65885;55.848;35.916;2023-04-25T02:00:44;4.93;;;3.67;;
76939;SDS011;65885;55.848;35.916;2023-04-25T02:03:11;4.93;;;3.40;;
76939;SDS011;65885;55.848;35.916;2023-04-25T02:05:39;5.50;;;3.50;;
76939;SDS011;65885;55.848;35.916;2023-04-25T02:08:08;5.65;;;3.65;;
76939;SDS011;65885;55.848;35.916;2023-04-25T02:10:35;4.28;;;2.95;;
76939;SDS011;65885;55.848;35.916;2023-04-25T02:13:05;4.93;;;3.30;;
76939;SDS011;65885;55.848;35.916;2023-04-25T02:15:32;7.88;;;3.10;;
76939;SDS011;65885;55.848;35.916;2023-04-25T02:18:20;5.70;;;3.20;;
76939;SDS011;65885;55.848;35.916;2023-04-25T02:20:47;5.97;;;3.55;;
76939;SDS011;65885;55.848;35.916;2023-04-25T02:23:15;4.80;;;3.30;;
76939;SDS011;65885;55.848;35.916;2023-04-25T02:25:44;5.20;;;3.40;;
76939;SDS011;65885;55.848;35.916;2023-04-25T02:28:13;7.85;;;3.47;;
76939;SDS011;65885;55.848;35.916;2023-04-25T02:30:40;3.83;;;2.83;;
76939;SDS011;65885;55.848;35.916;2023-04-25T02:33:08;5.30;;;3.25;;
76939;SDS011;65885;55.848;35.916;2023-04-25T02:35:36;7.65;;;3.28;;
76939;SDS011;65885;55.848;35.916;2023-04-25T02:38:03;5.25;;;2.75;;
76939;SDS011;65885;55.848;35.916;2023-04-25T02:40:31;6.53;;;3.00;;
76939;SDS011;65885;55.848;35.916;2023-04-25T02:42:58;4.72;;;2.80;;
76939;SDS011;65885;55.848;35.916;2023-04-25T02:45:27;4.45;;;2.90;;
76939;SDS011;65885;55.848;35.916;2023-04-25T02:47:55;3.42;;;2.92;;
76939;SDS011;65885;55.848;35.916;2023-04-25T02:50:22;5.55;;;2.92;;
76939;SDS011;65885;55.848;35.916;2023-04-25T02:52:49;4.35;;;2.88;;
76939;SDS011;65885;55.848;35.916;2023-04-25T02:55:17;5.18;;;3.10;;
76939;SDS011;65885;55.848;35.916;2023-04-25T02:57:46;6.45;;;3.38;;
76939;SDS011;65885;55.848;35.916;2023-04-25T03:00:14;3.28;;;2.42;;
76939;SDS011;65885;55.848;35.916;2023-04-25T03:02:43;4.72;;;2.50;;
76939;SDS011;65885;55.848;35.916;2023-04-25T03:05:10;6.90;;;3.75;;
76939;SDS011;65885;55.848;35.916;2023-04-25T03:07:38;6.55;;;3.30;;
76939;SDS011;65885;55.848;35.916;2023-04-25T03:10:06;6.32;;;3.40;;
76939;SDS011;65885;55.848;35.916;2023-04-25T03:12:34;4.95;;;3.33;;
76939;SDS011;65885;55.848;35.916;2023-04-25T03:15:01;4.63;;;2.90;;
76939;SDS011;65885;55.848;35.916;2023-04-25T03:17:32;5.50;;;3.22;;
76939;SDS011;65885;55.848;35.916;2023-04-25T03:20:00;5.03;;;3.28;;
76939;SDS011;65885;55.848;35.916;2023-04-25T03:24:57;4.32;;;2.85;;
76939;SDS011;65885;55.848;35.916;2023-04-25T03:27:24;5.53;;;3.40;;
76939;SDS011;65885;55.848;35.916;2023-04-25T03:29:52;3.40;;;2.90;;
76939;SDS011;65885;55.848;35.916;2023-04-25T03:32:19;4.80;;;3.10;;
76939;SDS011;65885;55.848;35.916;2023-04-25T03:34:47;4.68;;;3.00;;
76939;SDS011;65885;55.848;35.916;2023-04-25T03:37:16;5.32;;;3.20;;
76939;SDS011;65885;55.848;35.916;2023-04-25T03:39:43;4.22;;;3.10;;
76939;SDS011;65885;55.848;35.916;2023-04-25T03:42:10;4.53;;;3.15;;
76939;SDS011;65885;55.848;35.916;2023-04-25T03:44:38;4.07;;;2.80;;
76939;SDS011;65885;55.848;35.916;2023-04-25T03:47:05;4.60;;;2.90;;
76939;SDS011;65885;55.848;35.916;2023-04-25T03:49:34;4.90;;;3.03;;
76939;SDS011;65885;55.848;35.916;2023-04-25T03:52:02;4.47;;;2.80;;
76939;SDS011;65885;55.848;35.916;2023-04-25T03:54:31;5.63;;;3.22;;
76939;SDS011;65885;55.848;35.916;2023-04-25T03:56:59;5.13;;;3.28;;
76939;SDS011;65885;55.848;35.916;2023-04-25T03:59:26;4.00;;;2.75;;
76939;SDS011;65885;55.848;35.916;2023-04-25T04:01:54;4.15;;;3.17;;
76939;SDS011;65885;55.848;35.916;2023-04-25T04:04:21;5.97;;;3.28;;
76939;SDS011;65885;55.848;35.916;2023-04-25T04:06:48;4.75;;;3.35;;
76939;SDS011;65885;55.848;35.916;2023-04-25T04:09:16;6.65;;;3.90;;
76939;SDS011;65885;55.848;35.916;2023-04-25T04:11:45;5.40;;;3.35;;
76939;SDS011;65885;55.848;35.916;2023-04-25T04:14:12;7.57;;;4.32;;
76939;SDS011;65885;55.848;35.916;2023-04-25T04:16:40;4.88;;;3.38;;
76939;SDS011;65885;55.848;35.916;2023-04-25T04:19:07;4.07;;;3.40;;
76939;SDS011;65885;55.848;35.916;2023-04-25T04:21:35;5.78;;;3.13;;
76939;SDS011;65885;55.848;35.916;2023-04-25T04:24:02;5.95;;;3.75;;
76939;SDS011;65885;55.848;35.916;2023-04-25T04:26:31;7.13;;;3.70;;
76939;SDS011;65885;55.848;35.916;2023-04-25T04:29:01;4.35;;;3.53;;
76939;SDS011;65885;55.848;35.916;2023-04-25T04:31:28;6.28;;;3.60;;
76939;SDS011;65885;55.848;35.916;2023-04-25T04:33:56;5.60;;;3.30;;
76939;SDS011;65885;55.848;35.916;2023-04-25T04:36:23;6.63;;;3.67;;
76939;SDS011;65885;55.848;35.916;2023-04-25T04:38:51;5.55;;;3.70;;
76939;SDS011;65885;55.848;35.916;2023-04-25T04:41:19;7.18;;;4.47;;
76939;SDS011;65885;55.848;35.916;2023-04-25T04:43:46;7.40;;;4.43;;
76939;SDS011;65885;55.848;35.916;2023-04-25T04:46:15;6.85;;;4.30;;
76939;SDS011;65885;55.848;35.916;2023-04-25T04:48:43;6.30;;;3.95;;
76939;SDS011;65885;55.848;35.916;2023-04-25T04:51:11;5.78;;;3.90;;
76939;SDS011;65885;55.848;35.916;2023-04-25T04:53:39;6.65;;;4.00;;
76939;SDS011;65885;55.848;35.916;2023-04-25T04:56:06;5.60;;;4.18;;
76939;SDS011;65885;55.848;35.916;2023-04-25T04:58:34;8.38;;;4.57;;
76939;SDS011;65885;55.848;35.916;2023-04-25T05:01:01;6.32;;;4.28;;
76939;SDS011;65885;55.848;35.916;2023-04-25T05:03:30;5.20;;;3.97;;
76939;SDS011;65885;55.848;35.916;2023-04-25T05:05:58;6.50;;;4.85;;
76939;SDS011;65885;55.848;35.916;2023-04-25T05:08:26;7.30;;;4.05;;
76939;SDS011;65885;55.848;35.916;2023-04-25T05:10:53;7.47;;;4.22;;
76939;SDS011;65885;55.848;35.916;2023-04-25T05:13:21;5.32;;;3.65;;
76939;SDS011;65885;55.848;35.916;2023-04-25T05:15:48;6.70;;;4.68;;
76939;SDS011;65885;55.848;35.916;2023-04-25T05:18:15;7.80;;;4.50;;
76939;SDS011;65885;55.848;35.916;2023-04-25T05:20:44;6.70;;;4.20;;
76939;SDS011;65885;55.848;35.916;2023-04-25T05:23:12;6.47;;;4.03;;
76939;SDS011;65885;55.848;35.916;2023-04-25T05:25:40;6.30;;;4.07;;
76939;SDS011;65885;55.848;35.916;2023-04-25T05:28:08;5.78;;;3.60;;
76939;SDS011;65885;55.848;35.916;2023-04-25T05:30:35;8.63;;;4.18;;
76939;SDS011;65885;55.848;35.916;2023-04-25T05:33:03;6.55;;;4.07;;
76939;SDS011;65885;55.848;35.916;2023-04-25T05:35:30;5.10;;;3.83;;
76939;SDS011;65885;55.848;35.916;2023-04-25T05:37:59;5.75;;;3.67;;
76939;SDS011;65885;55.848;35.916;2023-04-25T05:40:27;6.68;;;3.70;;
76939;SDS011;65885;55.848;35.916;2023-04-25T05:42:54;4.00;;;3.28;;
76939;SDS011;65885;55.848;35.916;2023-04-25T05:45:23;7.07;;;4.32;;
76939;SDS011;65885;55.848;35.916;2023-04-25T05:47:50;5.50;;;4.03;;
76939;SDS011;65885;55.848;35.916;2023-04-25T05:50:18;4.93;;;3.80;;
76939;SDS011;65885;55.848;35.916;2023-04-25T05:52:45;5.30;;;3.67;;
76939;SDS011;65885;55.848;35.916;2023-04-25T05:55:14;6.50;;;3.50;;
76939;SDS011;65885;55.848;35.916;2023-04-25T05:57:42;6.18;;;3.50;;
76939;SDS011;65885;55.848;35.916;2023-04-25T06:00:11;4.38;;;3.45;;
76939;SDS011;65885;55.848;35.916;2023-04-25T06:05:08;4.65;;;3.10;;
76939;SDS011;65885;55.848;35.916;2023-04-25T06:07:36;4.93;;;3.30;;
76939;SDS011;65885;55.848;35.916;2023-04-25T06:10:04;5.90;;;3.58;;
76939;SDS011;65885;55.848;35.916;2023-04-25T06:12:34;4.25;;;3.22;;
76939;SDS011;65885;55.848;35.916;2023-04-25T06:15:05;6.68;;;3.22;;
76939;SDS011;65885;55.848;35.916;2023-04-25T06:17:36;4.93;;;3.20;;
76939;SDS011;65885;55.848;35.916;2023-04-25T06:20:03;5.82;;;2.92;;
76939;SDS011;65885;55.848;35.916;2023-04-25T06:22:32;5.28;;;3.22;;
76939;SDS011;65885;55.848;35.916;2023-04-25T06:24:59;6.95;;;3.58;;
76939;SDS011;65885;55.848;35.916;2023-04-25T06:27:30;4.95;;;3.33;;
76939;SDS011;65885;55.848;35.916;2023-04-25T06:29:59;4.70;;;3.25;;
76939;SDS011;65885;55.848;35.916;2023-04-25T06:32:29;4.28;;;3.30;;
76939;SDS011;65885;55.848;35.916;2023-04-25T06:34:57;4.20;;;3.10;;
76939;SDS011;65885;55.848;35.916;2023-04-25T06:37:25;4.80;;;3.03;;
76939;SDS011;65885;55.848;35.916;2023-04-25T06:39:52;5.97;;;3.50;;
76939;SDS011;65885;55.848;35.916;2023-04-25T06:42:20;4.38;;;2.53;;
76939;SDS011;65885;55.848;35.916;2023-04-25T06:44:48;5.20;;;2.92;;
76939;SDS011;65885;55.848;35.916;2023-04-25T06:47:17;4.55;;;3.40;;
76939;SDS011;65885;55.848;35.916;2023-04-25T06:49:44;6.13;;;2.85;;
76939;SDS011;65885;55.848;35.916;2023-04-25T06:52:11;4.85;;;2.90;;
76939;SDS011;65885;55.848;35.916;2023-04-25T06:54:39;5.18;;;3.40;;
76939;SDS011;65885;55.848;35.916;2023-04-25T06:57:07;5.35;;;3.03;;
76939;SDS011;65885;55.848;35.916;2023-04-25T06:59:34;5.70;;;3.10;;
76939;SDS011;65885;55.848;35.916;2023-04-25T07:02:01;6.15;;;3.45;;
76939;SDS011;65885;55.848;35.916;2023-04-25T07:04:32;3.90;;;2.70;;
76939;SDS011;65885;55.848;35.916;2023-04-25T07:07:00;3.55;;;2.65;;
76939;SDS011;65885;55.848;35.916;2023-04-25T07:09:28;5.05;;;2.90;;
76939;SDS011;65885;55.848;35.916;2023-04-25T07:11:59;4.82;;;2.80;;
76939;SDS011;65885;55.848;35.916;2023-04-25T07:14:26;5.60;;;2.90;;
76939;SDS011;65885;55.848;35.916;2023-04-25T07:16:54;4.22;;;2.63;;
76939;SDS011;65885;55.848;35.916;2023-04-25T07:19:22;2.90;;;2.60;;
76939;SDS011;65885;55.848;35.916;2023-04-25T07:21:53;3.50;;;2.72;;
76939;SDS011;65885;55.848;35.916;2023-04-25T07:24:21;5.30;;;2.90;;
76939;SDS011;65885;55.848;35.916;2023-04-25T07:26:49;3.63;;;2.60;;
76939;SDS011;65885;55.848;35.916;2023-04-25T07:29:17;3.53;;;3.17;;
76939;SDS011;65885;55.848;35.916;2023-04-25T07:31:44;4.13;;;2.70;;
76939;SDS011;65885;55.848;35.916;2023-04-25T07:34:12;3.55;;;2.80;;
76939;SDS011;65885;55.848;35.916;2023-04-25T07:36:39;3.65;;;2.40;;
76939;SDS011;65885;55.848;35.916;2023-04-25T07:39:09;3.92;;;2.83;;
76939;SDS011;65885;55.848;35.916;2023-04-25T07:41:37;5.72;;;2.50;;
76939;SDS011;65885;55.848;35.916;2023-04-25T07:44:05;4.90;;;2.72;;
76939;SDS011;65885;55.848;35.916;2023-04-25T07:46:32;3.88;;;2.85;;
76939;SDS011;65885;55.848;35.916;2023-04-25T07:48:59;3.30;;;2.10;;
76939;SDS011;65885;55.848;35.916;2023-04-25T07:51:28;4.40;;;2.70;;
76939;SDS011;65885;55.848;35.916;2023-04-25T07:53:59;4.95;;;2.63;;
76939;SDS011;65885;55.848;35.916;2023-04-25T07:56:29;5.65;;;2.80;;
76939;SDS011;65885;55.848;35.916;2023-04-25T07:58:57;3.17;;;2.88;;
76939;SDS011;65885;55.848;35.916;2023-04-25T08:01:24;3.10;;;2.13;;
76939;SDS011;65885;55.848;35.916;2023-04-25T08:03:52;4.05;;;2.63;;
76939;SDS011;65885;55.848;35.916;2023-04-25T08:06:20;5.43;;;2.80;;
76939;SDS011;65885;55.848;35.916;2023-04-25T08:08:47;4.45;;;2.60;;
76939;SDS011;65885;55.848;35.916;2023-04-25T08:11:15;4.35;;;2.25;;
76939;SDS011;65885;55.848;35.916;2023-04-25T08:13:44;3.88;;;2.63;;
76939;SDS011;65885;55.848;35.916;2023-04-25T08:16:12;3.35;;;2.45;;
76939;SDS011;65885;55.848;35.916;2023-04-25T08:18:39;3.17;;;2.10;;
76939;SDS011;65885;55.848;35.916;2023-04-25T08:21:06;3.00;;;2.22;;
76939;SDS011;65885;55.848;35.916;2023-04-25T08:23:36;7.18;;;2.53;;
76939;SDS011;65885;55.848;35.916;2023-04-25T08:26:04;4.00;;;2.65;;
76939;SDS011;65885;55.848;35.916;2023-04-25T08:28:31;4.03;;;2.33;;
76939;SDS011;65885;55.848;35.916;2023-04-25T08:31:00;3.75;;;3.10;;
76939;SDS011;65885;55.848;35.916;2023-04-25T08:33:28;2.28;;;2.03;;
76939;SDS011;65885;55.848;35.916;2023-04-25T08:35:55;3.35;;;2.22;;
76939;SDS011;65885;55.848;35.916;2023-04-25T08:38:23;3.85;;;2.63;;
76939;SDS011;65885;55.848;35.916;2023-04-25T08:40:50;3.85;;;2.42;;
76939;SDS011;65885;55.848;35.916;2023-04-25T08:43:19;4.50;;;2.70;;
76939;SDS011;65885;55.848;35.916;2023-04-25T08:45:47;5.88;;;2.58;;
76939;SDS011;65885;55.848;35.916;2023-04-25T08:48:17;5.43;;;2.40;;
76939;SDS011;65885;55.848;35.916;2023-04-25T08:50:45;3.25;;;2.53;;
76939;SDS011;65885;55.848;35.916;2023-04-25T08:53:18;2.90;;;2.58;;
76939;SDS011;65885;55.848;35.916;2023-04-25T08:55:49;4.07;;;3.03;;
76939;SDS011;65885;55.848;35.916;2023-04-25T08:58:17;6.60;;;4.32;;
76939;SDS011;65885;55.848;35.916;2023-04-25T09:00:46;5.18;;;3.20;;
76939;SDS011;65885;55.848;35.916;2023-04-25T09:03:16;3.20;;;2.63;;
76939;SDS011;65885;55.848;35.916;2023-04-25T09:05:44;4.45;;;2.45;;
76939;SDS011;65885;55.848;35.916;2023-04-25T09:08:12;3.95;;;2.38;;
76939;SDS011;65885;55.848;35.916;2023-04-25T09:10:40;3.03;;;2.50;;
76939;SDS011;65885;55.848;35.916;2023-04-25T09:13:08;4.50;;;2.72;;
76939;SDS011;65885;55.848;35.916;2023-04-25T09:15:47;5.07;;;2.75;;
76939;SDS011;65885;55.848;35.916;2023-04-25T09:18:24;4.60;;;3.05;;
76939;SDS011;65885;55.848;35.916;2023-04-25T09:20:53;4.00;;;2.80;;
76939;SDS011;65885;55.848;35.916;2023-04-25T09:23:22;5.22;;;3.00;;
76939;SDS011;65885;55.848;35.916;2023-04-25T09:25:51;6.10;;;4.97;;
76939;SDS011;65885;55.848;35.916;2023-04-25T09:28:23;3.22;;;2.85;;
76939;SDS011;65885;55.848;35.916;2023-04-25T09:30:54;3.97;;;3.13;;
76939;SDS011;65885;55.848;35.916;2023-04-25T09:33:28;3.55;;;2.60;;
76939;SDS011;65885;55.848;35.916;2023-04-25T09:36:01;4.65;;;2.92;;
76939;SDS011;65885;55.848;35.916;2023-04-25T09:38:30;12.02;;;10.77;;
76939;SDS011;65885;55.848;35.916;2023-04-25T09:40:58;10.88;;;9.30;;
76939;SDS011;65885;55.848;35.916;2023-04-25T09:43:27;9.80;;;7.40;;
76939;SDS011;65885;55.848;35.916;2023-04-25T09:45:54;6.15;;;3.90;;
76939;SDS011;65885;55.848;35.916;2023-04-25T09:48:25;3.55;;;3.13;;
76939;SDS011;65885;55.848;35.916;2023-04-25T09:51:07;3.58;;;2.90;;
76939;SDS011;65885;55.848;35.916;2023-04-25T09:53:37;3.30;;;2.72;;
76939;SDS011;65885;55.848;35.916;2023-04-25T09:56:06;4.72;;;2.42;;
76939;SDS011;65885;55.848;35.916;2023-04-25T09:58:35;2.90;;;2.28;;
76939;SDS011;65885;55.848;35.916;2023-04-25T10:01:05;5.22;;;3.13;;
76939;SDS011;65885;55.848;35.916;2023-04-25T10:03:35;6.28;;;2.95;;
76939;SDS011;65885;55.848;35.916;2023-04-25T10:06:06;3.22;;;2.45;;
76939;SDS011;65885;55.848;35.916;2023-04-25T10:08:38;4.00;;;2.95;;
76939;SDS011;65885;55.848;35.916;2023-04-25T10:11:06;4.65;;;2.53;;
76939;SDS011;65885;55.848;35.916;2023-04-25T10:13:35;4.40;;;2.70;;
76939;SDS011;65885;55.848;35.916;2023-04-25T10:16:03;3.83;;;2.33;;
76939;SDS011;65885;55.848;35.916;2023-04-25T10:18:32;3.15;;;2.38;;
76939;SDS011;65885;55.848;35.916;2023-04-25T10:21:00;2.60;;;2.40;;
76939;SDS011;65885;55.848;35.916;2023-04-25T10:23:31;3.53;;;2.90;;
76939;SDS011;65885;55.848;35.916;2023-04-25T10:25:59;3.88;;;2.70;;
76939;SDS011;65885;55.848;35.916;2023-04-25T10:28:28;6.00;;;2.53;;
76939;SDS011;65885;55.848;35.916;2023-04-25T10:31:00;3.47;;;2.35;;
76939;SDS011;65885;55.848;35.916;2023-04-25T10:33:31;6.05;;;2.92;;
76939;SDS011;65885;55.848;35.916;2023-04-25T10:36:08;4.32;;;3.08;;
76939;SDS011;65885;55.848;35.916;2023-04-25T10:38:38;6.57;;;3.20;;
76939;SDS011;65885;55.848;35.916;2023-04-25T10:41:06;6.07;;;3.10;;
76939;SDS011;65885;55.848;35.916;2023-04-25T10:43:38;3.70;;;2.58;;
76939;SDS011;65885;55.848;35.916;2023-04-25T10:46:13;4.60;;;2.70;;
76939;SDS011;65885;55.848;35.916;2023-04-25T10:48:46;2.35;;;2.15;;
76939;SDS011;65885;55.848;35.916;2023-04-25T10:51:19;2.97;;;2.55;;
76939;SDS011;65885;55.848;35.916;2023-04-25T10:53:58;5.25;;;3.30;;
76939;SDS011;65885;55.848;35.916;2023-04-25T10:56:28;4.80;;;2.65;;
76939;SDS011;65885;55.848;35.916;2023-04-25T10:59:04;4.15;;;2.15;;
76939;SDS011;65885;55.848;35.916;2023-04-25T11:01:37;4.30;;;2.63;;
76939;SDS011;65885;55.848;35.916;2023-04-25T11:04:07;5.28;;;2.70;;
76939;SDS011;65885;55.848;35.916;2023-04-25T11:06:51;2.80;;;2.30;;
76939;SDS011;65885;55.848;35.916;2023-04-25T11:09:29;7.18;;;2.83;;
76939;SDS011;65885;55.848;35.916;2023-04-25T11:12:01;3.38;;;2.33;;
76939;SDS011;65885;55.848;35.916;2023-04-25T11:14:30;5.45;;;2.70;;
76939;SDS011;65885;55.848;35.916;2023-04-25T11:16:59;4.07;;;2.63;;
76939;SDS011;65885;55.848;35.916;2023-04-25T11:19:29;4.47;;;2.85;;
76939;SDS011;65885;55.848;35.916;2023-04-25T11:21:58;2.72;;;2.35;;
76939;SDS011;65885;55.848;35.916;2023-04-25T11:24:29;3.00;;;2.30;;
76939;SDS011;65885;55.848;35.916;2023-04-25T11:26:59;3.72;;;2.33;;
76939;SDS011;65885;55.848;35.916;2023-04-25T11:29:29;3.97;;;2.42;;
76939;SDS011;65885;55.848;35.916;2023-04-25T11:31:58;3.53;;;2.28;;
76939;SDS011;65885;55.848;35.916;2023-04-25T11:34:28;3.03;;;2.30;;
76939;SDS011;65885;55.848;35.916;2023-04-25T11:36:59;4.85;;;2.45;;
76939;SDS011;65885;55.848;35.916;2023-04-25T11:39:27;6.07;;;2.55;;
76939;SDS011;65885;55.848;35.916;2023-04-25T11:41:57;3.97;;;2.60;;
76939;SDS011;65885;55.848;35.916;2023-04-25T11:44:26;5.78;;;2.50;;
76939;SDS011;65885;55.848;35.916;2023-04-25T11:46:55;4.03;;;2.70;;
76939;SDS011;65885;55.848;35.916;2023-04-25T11:49:24;5.20;;;2.38;;
76939;SDS011;65885;55.848;35.916;2023-04-25T11:51:59;3.53;;;2.50;;
76939;SDS011;65885;55.848;35.916;2023-04-25T11:54:27;3.22;;;2.83;;
76939;SDS011;65885;55.848;35.916;2023-04-25T11:56:55;4.95;;;2.42;;
76939;SDS011;65885;55.848;35.916;2023-04-25T11:59:25;5.97;;;2.78;;
76939;SDS011;65885;55.848;35.916;2023-04-25T12:01:54;4.63;;;2.85;;
76939;SDS011;65885;55.848;35.916;2023-04-25T12:04:24;4.45;;;2.70;;
76939;SDS011;65885;55.848;35.916;2023-04-25T12:06:54;3.25;;;2.42;;
76939;SDS011;65885;55.848;35.916;2023-04-25T12:09:27;3.65;;;2.55;;
76939;SDS011;65885;55.848;35.916;2023-04-25T12:11:59;3.78;;;2.95;;
76939;SDS011;65885;55.848;35.916;2023-04-25T12:14:30;3.45;;;2.78;;
76939;SDS011;65885;55.848;35.916;2023-04-25T12:17:02;3.70;;;2.47;;
76939;SDS011;65885;55.848;35.916;2023-04-25T12:19:33;3.58;;;2.53;;
76939;SDS011;65885;55.848;35.916;2023-04-25T12:22:18;3.97;;;3.15;;
76939;SDS011;65885;55.848;35.916;2023-04-25T12:24:47;3.53;;;2.75;;
76939;SDS011;65885;55.848;35.916;2023-04-25T12:27:17;6.85;;;2.75;;
76939;SDS011;65885;55.848;35.916;2023-04-25T12:29:50;4.00;;;2.83;;
76939;SDS011;65885;55.848;35.916;2023-04-25T12:32:18;4.88;;;3.00;;
76939;SDS011;65885;55.848;35.916;2023-04-25T12:34:46;3.20;;;2.53;;
76939;SDS011;65885;55.848;35.916;2023-04-25T12:37:14;4.78;;;2.92;;
76939;SDS011;65885;55.848;35.916;2023-04-25T12:39:43;3.97;;;2.78;;
76939;SDS011;65885;55.848;35.916;2023-04-25T12:42:12;4.93;;;3.00;;
76939;SDS011;65885;55.848;35.916;2023-04-25T12:44:41;3.60;;;2.45;;
76939;SDS011;65885;55.848;35.916;2023-04-25T12:47:08;4.38;;;2.28;;
76939;SDS011;65885;55.848;35.916;2023-04-25T12:49:35;3.15;;;2.00;;
76939;SDS011;65885;55.848;35.916;2023-04-25T12:52:03;4.43;;;2.88;;
76939;SDS011;65885;55.848;35.916;2023-04-25T12:54:31;6.00;;;2.53;;
76939;SDS011;65885;55.848;35.916;2023-04-25T12:56:58;3.70;;;2.25;;
76939;SDS011;65885;55.848;35.916;2023-04-25T12:59:28;4.70;;;2.70;;
76939;SDS011;65885;55.848;35.916;2023-04-25T13:01:57;4.05;;;2.50;;
76939;SDS011;65885;55.848;35.916;2023-04-25T13:04:24;4.32;;;2.60;;
76939;SDS011;65885;55.848;35.916;2023-04-25T13:06:52;4.88;;;2.83;;
76939;SDS011;65885;55.848;35.916;2023-04-25T13:09:20;3.83;;;2.70;;
76939;SDS011;65885;55.848;35.916;2023-04-25T13:11:47;3.63;;;2.67;;
76939;SDS011;65885;55.848;35.916;2023-04-25T13:14:15;5.35;;;2.40;;
76939;SDS011;65885;55.848;35.916;2023-04-25T13:16:42;3.40;;;2.22;;
76939;SDS011;65885;55.848;35.916;2023-04-25T13:19:11;3.65;;;2.63;;
76939;SDS011;65885;55.848;35.916;2023-04-25T13:21:39;7.32;;;3.00;;
76939;SDS011;65885;55.848;35.916;2023-04-25T13:24:06;7.93;;;2.63;;
76939;SDS011;65885;55.848;35.916;2023-04-25T13:26:34;4.40;;;2.63;;
76939;SDS011;65885;55.848;35.916;2023-04-25T13:29:01;4.47;;;2.72;;
76939;SDS011;65885;55.848;35.916;2023-04-25T13:31:30;3.15;;;2.17;;
76939;SDS011;65885;55.848;35.916;2023-04-25T13:33:58;4.00;;;3.10;;
76939;SDS011;65885;55.848;35.916;2023-04-25T13:36:28;3.10;;;2.80;;
76939;SDS011;65885;55.848;35.916;2023-04-25T13:38:59;3.20;;;2.33;;
76939;SDS011;65885;55.848;35.916;2023-04-25T13:41:29;3.17;;;2.17;;
76939;SDS011;65885;55.848;35.916;2023-04-25T13:43:56;4.72;;;2.60;;
76939;SDS011;65885;55.848;35.916;2023-04-25T13:46:26;6.53;;;2.75;;
76939;SDS011;65885;55.848;35.916;2023-04-25T13:48:54;3.78;;;2.60;;
76939;SDS011;65885;55.848;35.916;2023-04-25T13:51:21;4.80;;;2.53;;
76939;SDS011;65885;55.848;35.916;2023-04-25T13:53:50;3.03;;;2.55;;
76939;SDS011;65885;55.848;35.916;2023-04-25T13:56:18;4.93;;;2.80;;
76939;SDS011;65885;55.848;35.916;2023-04-25T13:58:50;3.78;;;2.05;;
76939;SDS011;65885;55.848;35.916;2023-04-25T14:01:17;5.05;;;2.55;;
76939;SDS011;65885;55.848;35.916;2023-04-25T14:03:47;3.47;;;2.35;;
76939;SDS011;65885;55.848;35.916;2023-04-25T14:06:14;4.68;;;2.22;;
76939;SDS011;65885;55.848;35.916;2023-04-25T14:08:48;3.03;;;2.10;;
76939;SDS011;65885;55.848;35.916;2023-04-25T14:11:17;5.55;;;2.28;;
76939;SDS011;65885;55.848;35.916;2023-04-25T14:13:46;3.40;;;2.00;;
76939;SDS011;65885;55.848;35.916;2023-04-25T14:16:15;3.05;;;2.22;;
76939;SDS011;65885;55.848;35.916;2023-04-25T14:18:43;4.43;;;2.40;;
76939;SDS011;65885;55.848;35.916;2023-04-25T14:21:10;3.15;;;2.53;;
76939;SDS011;65885;55.848;35.916;2023-04-25T14:23:38;2.63;;;1.80;;
76939;SDS011;65885;55.848;35.916;2023-04-25T14:26:05;3.17;;;1.90;;
76939;SDS011;65885;55.848;35.916;2023-04-25T14:28:38;4.40;;;2.33;;
76939;SDS011;65885;55.848;35.916;2023-04-25T14:31:06;3.00;;;2.20;;
76939;SDS011;65885;55.848;35.916;2023-04-25T14:33:33;2.33;;;1.60;;
76939;SDS011;65885;55.848;35.916;2023-04-25T14:36:02;2.72;;;1.98;;
76939;SDS011;65885;55.848;35.916;2023-04-25T14:38:30;2.30;;;1.70;;
76939;SDS011;65885;55.848;35.916;2023-04-25T14:40:58;2.03;;;1.83;;
76939;SDS011;65885;55.848;35.916;2023-04-25T14:43:25;3.17;;;2.20;;
76939;SDS011;65885;55.848;35.916;2023-04-25T14:45:54;2.67;;;2.05;;
76939;SDS011;65885;55.848;35.916;2023-04-25T14:48:22;2.53;;;1.98;;